Time;durP1;ratioP1;P1;durP2;ratioP2;P2;SDS_P1;SDS_P2;PMS_P1;PMS_P2;Temp;Humidity;BMP_temperature;BMP_pressure;BME280_temperature;BME280_humidity;BME280_pressure;Samples;Min_cycle;Max_cycle;Signal;HPM_P1;HPM_P2
2021/01/30 00:00:42;;;;;;;1.60;1.40;;;7.40;99.90;;;;;;4969470;29;20227;-90
2021/01/30 00:03:16;;;;;;;1.53;1.10;;;7.30;99.90;;;;;;4971815;29;20199;-90
2021/01/30 00:05:47;;;;;;;1.10;1.00;;;7.20;99.90;;;;;;4972254;29;20220;-90
2021/01/30 00:08:19;;;;;;;1.40;1.30;;;7.20;99.90;;;;;;4973245;29;20223;-89
2021/01/30 00:11:00;;;;;;;1.53;1.37;;;7.20;99.90;;;;;;4970950;29;20203;-89
2021/01/30 00:13:44;;;;;;;1.47;1.10;;;7.20;99.90;;;;;;4968026;28;20290;-89
2021/01/30 00:16:15;;;;;;;1.73;1.00;;;7.20;99.90;;;;;;4971094;29;20211;-89
2021/01/30 00:18:48;;;;;;;1.00;0.90;;;7.10;99.90;;;;;;4975706;29;20231;-89
2021/01/30 00:21:20;;;;;;;2.57;1.23;;;7.10;99.90;;;;;;4974559;29;20235;-88
2021/01/30 00:26:41;;;;;;;1.17;1.07;;;7.00;99.90;;;;;;4957940;28;20198;-89
2021/01/30 00:29:24;;;;;;;1.07;0.97;;;7.00;99.90;;;;;;4972215;28;20198;-90
2021/01/30 00:31:57;;;;;;;1.20;1.10;;;7.00;99.90;;;;;;4960886;28;20204;-90
2021/01/30 00:34:31;;;;;;;3.03;0.97;;;7.00;99.90;;;;;;4955698;29;20236;-89
2021/01/30 00:37:09;;;;;;;0.73;0.73;;;6.90;99.90;;;;;;4973952;29;20210;-89
2021/01/30 00:39:40;;;;;;;1.27;0.90;;;6.80;99.90;;;;;;4972390;29;20258;-88
2021/01/30 00:42:15;;;;;;;0.97;0.90;;;6.80;99.90;;;;;;4969749;29;20214;-91
2021/01/30 00:44:46;;;;;;;1.30;1.10;;;6.70;99.90;;;;;;4969936;29;20277;-91
2021/01/30 00:47:17;;;;;;;0.90;0.80;;;6.70;99.90;;;;;;4969161;29;20223;-89
2021/01/30 00:49:49;;;;;;;1.70;0.83;;;6.60;99.90;;;;;;4968307;29;20226;-90
2021/01/30 00:52:24;;;;;;;1.73;1.10;;;6.60;99.90;;;;;;4968989;29;20204;-89
2021/01/30 00:54:54;;;;;;;2.70;1.50;;;6.50;99.90;;;;;;4969259;29;20248;-90
2021/01/30 00:57:28;;;;;;;2.40;2.00;;;6.50;99.90;;;;;;4959465;29;20211;-90
2021/01/30 01:00:07;;;;;;;1.90;1.67;;;6.40;99.90;;;;;;4932308;29;20263;-89
2021/01/30 01:02:38;;;;;;;1.90;1.60;;;6.40;99.90;;;;;;4965562;29;20223;-89
2021/01/30 01:05:11;;;;;;;1.73;1.30;;;6.40;99.90;;;;;;4968871;29;20211;-89
2021/01/30 01:07:43;;;;;;;2.47;1.63;;;6.30;99.90;;;;;;4967287;29;20229;-90
2021/01/30 01:10:16;;;;;;;2.17;1.83;;;6.30;99.90;;;;;;4966189;29;20271;-91
2021/01/30 01:12:48;;;;;;;2.13;1.70;;;6.20;99.90;;;;;;4967598;29;20204;-90
2021/01/30 01:15:22;;;;;;;1.87;1.63;;;6.20;99.90;;;;;;4967092;29;20214;-90
2021/01/30 01:17:54;;;;;;;3.43;1.60;;;6.20;99.90;;;;;;4968156;29;20624;-90
2021/01/30 01:20:25;;;;;;;1.77;1.60;;;6.20;99.90;;;;;;4967157;29;20234;-90
2021/01/30 01:22:56;;;;;;;2.77;1.70;;;6.10;99.90;;;;;;4968647;29;20215;-89
2021/01/30 01:25:30;;;;;;;2.00;1.77;;;6.10;99.90;;;;;;4949699;29;20240;-89
2021/01/30 01:28:06;;;;;;;3.47;1.73;;;6.00;99.90;;;;;;4967823;29;20231;-90
2021/01/30 01:30:36;;;;;;;4.07;2.30;;;6.00;99.90;;;;;;4964484;29;20205;-89
2021/01/30 01:38:42;;;;;;;4.40;3.57;;;5.90;99.90;;;;;;4973857;29;20199;-89
2021/01/30 01:41:16;;;;;;;3.40;2.30;;;5.90;99.90;;;;;;4973055;29;20227;-89
2021/01/30 01:44:02;;;;;;;2.07;1.80;;;5.90;99.90;;;;;;4967186;29;20210;-90
2021/01/30 01:46:39;;;;;;;2.20;1.70;;;5.80;99.90;;;;;;4971946;29;20208;-90
2021/01/30 01:52:09;;;;;;;2.80;1.50;;;5.80;99.90;;;;;;4953722;29;20284;-90
2021/01/30 01:54:55;;;;;;;2.03;1.60;;;5.80;99.90;;;;;;4618379;28;10000631;-90
2021/01/30 01:57:35;;;;;;;2.10;1.90;;;5.80;99.90;;;;;;4975251;29;20235;-89
2021/01/30 02:00:25;;;;;;;3.67;3.30;;;5.80;99.90;;;;;;4973710;28;20231;-91
2021/01/30 02:05:41;;;;;;;5.57;3.57;;;5.70;99.90;;;;;;4974718;29;20183;-88
2021/01/30 02:08:14;;;;;;;2.23;1.87;;;5.60;99.90;;;;;;4974606;29;20637;-89
2021/01/30 02:10:50;;;;;;;2.10;1.80;;;5.60;99.90;;;;;;4969373;23;20259;-89
2021/01/30 02:13:25;;;;;;;2.40;2.00;;;5.70;99.90;;;;;;4963797;29;20227;-88
2021/01/30 02:16:04;;;;;;;2.23;1.80;;;5.70;99.90;;;;;;4972592;28;20223;-92
2021/01/30 02:18:48;;;;;;;1.90;1.80;;;5.70;99.90;;;;;;4962689;29;20225;-92
2021/01/30 02:22:09;;;;;;;2.77;2.07;;;5.70;99.90;;;;;;4974047;28;20275;-93
2021/01/30 02:25:17;;;;;;;2.63;1.80;;;5.70;99.90;;;;;;4970320;28;20211;-90
2021/01/30 02:28:11;;;;;;;4.30;2.60;;;5.70;99.90;;;;;;4955372;29;20218;-93
2021/01/30 02:31:07;;;;;;;4.33;3.13;;;5.60;99.90;;;;;;4962558;29;20229;-93
2021/01/30 02:34:11;;;;;;;19.27;12.13;;;5.60;99.90;;;;;;4939293;29;20196;-89
2021/01/30 02:36:51;;;;;;;17.33;10.20;;;5.60;99.90;;;;;;4913907;28;20199;-91
2021/01/30 02:39:26;;;;;;;25.97;17.97;;;5.60;99.90;;;;;;4977613;28;20244;-92
2021/01/30 02:42:05;;;;;;;20.73;16.87;;;5.60;99.90;;;;;;4975012;29;20206;-93
2021/01/30 02:44:41;;;;;;;8.03;7.07;;;5.50;99.90;;;;;;4965002;29;20238;-92
2021/01/30 02:47:15;;;;;;;5.37;3.63;;;5.50;99.90;;;;;;4976754;29;20218;-94
2021/01/30 02:49:57;;;;;;;5.00;3.27;;;5.50;99.90;;;;;;4979406;28;20259;-94
2021/01/30 02:52:32;;;;;;;3.27;2.30;;;5.50;99.90;;;;;;4971315;28;20286;-96
2021/01/30 03:00:23;;;;;;;2.17;1.70;;;5.60;99.90;;;;;;5069660;23;20249;-91
2021/01/30 03:02:57;;;;;;;2.90;2.00;;;5.60;99.90;;;;;;5379221;23;20237;-91
2021/01/30 03:05:30;;;;;;;2.67;2.10;;;5.70;99.90;;;;;;4984036;28;20208;-91
2021/01/30 03:24:10;;;;;;;13.13;9.97;;;5.80;99.90;;;;;;6018751;23;3254541;-92
2021/01/30 03:26:44;;;;;;;11.33;8.67;;;5.80;99.90;;;;;;6153070;23;20181;-93
2021/01/30 03:29:19;;;;;;;8.47;6.23;;;5.80;99.90;;;;;;6128933;23;20172;-93
2021/01/30 03:31:51;;;;;;;8.50;5.00;;;5.80;99.90;;;;;;6153261;23;20166;-92
2021/01/30 03:34:24;;;;;;;6.87;4.40;;;5.80;99.90;;;;;;6154474;23;20245;-92
2021/01/30 03:36:57;;;;;;;7.67;4.27;;;5.90;99.90;;;;;;6154492;23;20174;-92
2021/01/30 03:39:30;;;;;;;6.47;4.80;;;6.00;99.90;;;;;;6154102;23;20213;-90
2021/01/30 03:42:01;;;;;;;5.47;4.40;;;5.90;99.90;;;;;;6151986;23;20178;-92
2021/01/30 03:44:34;;;;;;;4.93;4.30;;;6.00;99.90;;;;;;6154072;23;20216;-90
2021/01/30 03:47:05;;;;;;;5.23;3.90;;;6.00;99.90;;;;;;6153966;23;20239;-90
2021/01/30 03:49:40;;;;;;;6.07;5.47;;;6.00;99.90;;;;;;6153767;23;20179;-90
2021/01/30 03:52:11;;;;;;;6.23;5.30;;;6.00;99.90;;;;;;6151866;23;20182;-91
2021/01/30 03:54:44;;;;;;;6.60;4.70;;;6.00;99.90;;;;;;6153738;23;20237;-91
2021/01/30 03:57:15;;;;;;;9.17;5.43;;;6.00;99.90;;;;;;6154290;23;20166;-92
2021/01/30 03:59:49;;;;;;;9.00;5.67;;;6.00;99.90;;;;;;6148215;23;20656;-91
2021/01/30 04:02:21;;;;;;;8.17;5.77;;;6.00;99.90;;;;;;6145595;23;20173;-92
2021/01/30 04:04:53;;;;;;;8.87;6.73;;;6.00;99.90;;;;;;6147504;23;20233;-91
2021/01/30 04:07:24;;;;;;;10.00;6.60;;;6.00;99.90;;;;;;6148220;23;20178;-91
2021/01/30 04:09:57;;;;;;;7.90;5.93;;;6.00;99.90;;;;;;6150540;23;20663;-92
2021/01/30 04:12:30;;;;;;;8.37;6.40;;;6.00;99.90;;;;;;6123040;23;20182;-90
2021/01/30 04:15:01;;;;;;;10.93;7.23;;;6.00;99.90;;;;;;6147216;23;20181;-92
2021/01/30 04:17:32;;;;;;;7.83;6.70;;;6.00;99.90;;;;;;6148003;23;20184;-91
2021/01/30 04:20:04;;;;;;;3.43;2.27;;;6.10;99.90;;;;;;6144231;23;20261;-92
2021/01/30 04:22:35;;;;;;;2.57;2.10;;;6.20;99.90;;;;;;6140410;23;20517;-91
2021/01/30 04:25:09;;;;;;;3.10;2.07;;;6.10;99.90;;;;;;6142406;23;20169;-90
2021/01/30 04:27:41;;;;;;;3.07;2.47;;;6.20;99.90;;;;;;6141880;23;20181;-90
2021/01/30 04:30:14;;;;;;;3.50;2.70;;;6.10;99.90;;;;;;6141720;23;20234;-89
2021/01/30 04:32:44;;;;;;;2.93;2.47;;;6.10;99.90;;;;;;6140426;23;20182;-91
2021/01/30 04:35:18;;;;;;;3.37;2.43;;;6.10;99.90;;;;;;6142688;23;20195;-90
2021/01/30 04:37:49;;;;;;;6.57;3.00;;;6.10;99.90;;;;;;6142587;23;20205;-91
2021/01/30 04:40:32;;;;;;;4.07;3.03;;;6.10;99.90;;;;;;6141924;23;20277;-90
2021/01/30 04:43:17;;;;;;;3.53;2.87;;;6.10;99.90;;;;;;6141563;23;20178;-91
2021/01/30 04:46:05;;;;;;;5.33;2.97;;;6.10;99.90;;;;;;6142566;23;20174;-90
2021/01/30 04:48:56;;;;;;;4.40;3.20;;;6.10;99.90;;;;;;6140818;23;20173;-90
2021/01/30 04:51:36;;;;;;;5.33;3.33;;;6.10;99.90;;;;;;6140568;23;20182;-90
2021/01/30 04:54:17;;;;;;;4.03;3.50;;;6.10;99.90;;;;;;6143670;23;20182;-90
2021/01/30 04:57:03;;;;;;;4.77;3.17;;;6.10;99.90;;;;;;6135307;23;20177;-90
2021/01/30 04:59:44;;;;;;;6.17;4.03;;;6.20;99.90;;;;;;6129812;23;20210;-90
2021/01/30 05:02:26;;;;;;;6.60;3.90;;;6.20;99.90;;;;;;6130348;23;20182;-90
2021/01/30 05:05:00;;;;;;;7.30;4.13;;;6.20;99.90;;;;;;6132918;23;20182;-88
2021/01/30 05:07:36;;;;;;;8.17;4.37;;;6.20;99.90;;;;;;6136108;23;20192;-89
2021/01/30 05:10:14;;;;;;;5.63;4.00;;;6.10;99.90;;;;;;6144590;23;20165;-88
2021/01/30 05:13:00;;;;;;;4.80;3.20;;;6.10;99.90;;;;;;6148551;23;20158;-88
2021/01/30 05:15:36;;;;;;;3.60;2.67;;;6.00;99.90;;;;;;6150583;23;20177;-90
2021/01/30 05:18:13;;;;;;;3.70;2.70;;;6.00;99.90;;;;;;6144761;23;20183;-90
2021/01/30 05:20:49;;;;;;;3.20;2.27;;;5.90;99.90;;;;;;6146347;23;20205;-91
2021/01/30 05:23:20;;;;;;;3.07;2.40;;;5.80;99.90;;;;;;6145300;23;20196;-89
2021/01/30 05:25:55;;;;;;;2.60;2.33;;;5.70;99.90;;;;;;6143025;23;20239;-89
2021/01/30 05:28:35;;;;;;;4.10;2.50;;;5.70;99.90;;;;;;6134531;23;20170;-89
2021/01/30 05:31:20;;;;;;;3.03;2.30;;;5.60;99.90;;;;;;6129151;23;20187;-90
2021/01/30 05:34:07;;;;;;;4.43;3.23;;;5.50;99.90;;;;;;6132254;23;20171;-90
2021/01/30 05:36:45;;;;;;;4.30;3.20;;;5.40;99.90;;;;;;6129772;23;20551;-89
2021/01/30 05:39:53;;;;;;;5.53;3.40;;;5.30;99.90;;;;;;6130289;23;20202;-90
2021/01/30 05:42:34;;;;;;;4.27;3.77;;;5.30;99.90;;;;;;6011834;23;20275;-89
2021/01/30 05:45:17;;;;;;;4.90;4.17;;;5.30;99.90;;;;;;6116363;23;20249;-89
2021/01/30 05:47:52;;;;;;;7.20;4.73;;;5.30;99.90;;;;;;6129781;23;20201;-89
2021/01/30 05:50:31;;;;;;;5.83;4.23;;;5.30;99.90;;;;;;6128979;23;20189;-90
2021/01/30 05:53:04;;;;;;;7.23;4.40;;;5.20;99.90;;;;;;6129109;23;20181;-89
2021/01/30 05:55:37;;;;;;;5.77;4.63;;;5.20;99.90;;;;;;6130361;23;20534;-89
2021/01/30 05:58:10;;;;;;;5.10;4.60;;;5.20;99.90;;;;;;6130337;23;20167;-90
2021/01/30 06:00:42;;;;;;;5.67;4.37;;;5.30;99.90;;;;;;6128849;23;20213;-89
2021/01/30 06:03:17;;;;;;;5.53;4.30;;;5.30;99.90;;;;;;6129851;23;20283;-89
2021/01/30 06:05:49;;;;;;;8.20;4.60;;;5.30;99.90;;;;;;6132820;23;20178;-88
2021/01/30 06:08:24;;;;;;;4.50;3.70;;;5.30;99.90;;;;;;6129764;23;20194;-89
2021/01/30 06:11:07;;;;;;;4.90;4.20;;;5.30;99.90;;;;;;6128963;23;20186;-89
2021/01/30 06:13:53;;;;;;;5.53;4.00;;;5.30;99.90;;;;;;6128007;23;20167;-89
2021/01/30 06:16:44;;;;;;;5.00;4.07;;;5.20;99.90;;;;;;6127733;23;20221;-90
2021/01/30 06:19:19;;;;;;;7.13;4.27;;;5.20;99.90;;;;;;6128325;23;20173;-90
2021/01/30 06:22:08;;;;;;;4.83;4.07;;;5.20;99.90;;;;;;6126213;23;20178;-90
2021/01/30 06:24:44;;;;;;;4.13;3.57;;;5.10;99.90;;;;;;6128358;23;20210;-89
2021/01/30 06:27:29;;;;;;;5.10;3.90;;;5.10;99.90;;;;;;6134837;23;20386;-88
2021/01/30 06:30:05;;;;;;;5.27;3.33;;;5.10;99.90;;;;;;6137114;23;20197;-89
2021/01/30 06:32:43;;;;;;;4.20;3.10;;;5.10;99.90;;;;;;6131516;23;20174;-90
2021/01/30 06:35:26;;;;;;;4.00;3.30;;;5.10;99.90;;;;;;6129441;23;20178;-90
2021/01/30 06:38:07;;;;;;;4.37;2.83;;;5.10;99.90;;;;;;6127370;23;20174;-89
2021/01/30 06:40:50;;;;;;;5.60;3.40;;;5.10;99.90;;;;;;6128661;23;20201;-90
2021/01/30 06:43:35;;;;;;;4.23;3.00;;;5.10;99.90;;;;;;6128224;23;20182;-89
2021/01/30 06:46:10;;;;;;;4.23;3.40;;;5.00;99.90;;;;;;6133228;23;20253;-88
2021/01/30 06:48:44;;;;;;;3.60;3.00;;;5.00;99.90;;;;;;6139026;23;20201;-89
2021/01/30 06:51:31;;;;;;;4.07;3.10;;;5.00;99.90;;;;;;6138735;23;20176;-90
2021/01/30 06:54:19;;;;;;;4.27;3.47;;;4.90;99.90;;;;;;6129122;23;20483;-90
2021/01/30 06:57:07;;;;;;;5.57;4.00;;;4.90;99.90;;;;;;6131601;23;20193;-89
2021/01/30 06:59:41;;;;;;;6.30;3.80;;;4.90;99.90;;;;;;6130246;23;20206;-89
2021/01/30 07:02:20;;;;;;;4.40;3.90;;;4.90;99.90;;;;;;6128664;23;20191;-89
2021/01/30 07:05:17;;;;;;;3.87;3.47;;;4.90;99.90;;;;;;6141003;23;20186;-90
2021/01/30 07:08:11;;;;;;;4.73;3.60;;;4.90;99.90;;;;;;6143034;23;20175;-90
2021/01/30 07:10:51;;;;;;;4.50;3.60;;;4.90;99.90;;;;;;6128145;23;20179;-90
2021/01/30 07:13:43;;;;;;;4.07;3.00;;;4.90;99.90;;;;;;6128638;23;20178;-90
2021/01/30 07:16:26;;;;;;;5.40;3.30;;;4.90;99.90;;;;;;6130341;23;20178;-90
2021/01/30 07:19:10;;;;;;;5.60;3.43;;;4.90;99.90;;;;;;6141541;23;20226;-89
2021/01/30 07:21:47;;;;;;;7.10;3.77;;;4.90;99.90;;;;;;6148507;23;20190;-89
2021/01/30 07:24:26;;;;;;;4.40;3.00;;;4.90;99.90;;;;;;6148593;23;20178;-89
2021/01/30 07:27:03;;;;;;;4.27;2.80;;;4.90;99.90;;;;;;6151049;23;20166;-89
2021/01/30 07:29:45;;;;;;;4.67;3.10;;;4.90;99.90;;;;;;6150992;23;20158;-88
2021/01/30 07:32:23;;;;;;;4.13;3.07;;;4.90;99.90;;;;;;6149673;23;20174;-89
2021/01/30 07:35:13;;;;;;;4.10;3.17;;;4.90;99.90;;;;;;6149854;23;20227;-88
2021/01/30 07:37:55;;;;;;;3.83;3.40;;;5.00;99.90;;;;;;6149195;23;20189;-89
2021/01/30 07:40:38;;;;;;;3.70;3.37;;;5.00;99.90;;;;;;6143407;23;20243;-90
2021/01/30 07:43:15;;;;;;;3.90;2.83;;;5.00;99.90;;;;;;6141312;23;20255;-90
2021/01/30 07:45:52;;;;;;;3.10;2.67;;;4.90;99.90;;;;;;6139061;23;20174;-89
2021/01/30 07:48:27;;;;;;;3.60;2.37;;;5.00;99.90;;;;;;6130690;23;20502;-88
2021/01/30 07:51:05;;;;;;;5.20;2.50;;;5.00;99.90;;;;;;6130518;23;20179;-89
2021/01/30 07:53:38;;;;;;;5.33;2.80;;;5.00;99.90;;;;;;6128936;23;20178;-90
2021/01/30 07:56:30;;;;;;;3.37;2.67;;;5.00;99.90;;;;;;6129399;23;20210;-90
2021/01/30 07:59:21;;;;;;;2.80;2.27;;;5.00;99.90;;;;;;6131683;23;20167;-91
2021/01/30 08:02:23;;;;;;;4.00;2.40;;;5.00;99.90;;;;;;6129769;23;20745;-90
2021/01/30 08:05:03;;;;;;;3.10;2.23;;;5.00;99.90;;;;;;6110012;23;20240;-89
2021/01/30 08:07:49;;;;;;;3.47;2.40;;;5.00;99.90;;;;;;6132812;23;20174;-90
2021/01/30 08:10:30;;;;;;;6.20;2.80;;;5.00;99.90;;;;;;6130461;23;20186;-90
2021/01/30 08:13:20;;;;;;;3.07;2.47;;;5.00;99.90;;;;;;6131203;23;20182;-90
2021/01/30 08:16:01;;;;;;;2.80;2.43;;;5.00;99.90;;;;;;6131085;23;20198;-89
2021/01/30 08:18:38;;;;;;;3.70;2.60;;;5.00;99.90;;;;;;6129630;23;20627;-90
2021/01/30 08:21:18;;;;;;;4.63;2.40;;;5.00;99.90;;;;;;6129892;23;20224;-89
2021/01/30 08:24:02;;;;;;;3.63;2.60;;;5.00;99.90;;;;;;6131000;23;20480;-89
2021/01/30 08:26:37;;;;;;;3.33;2.57;;;5.00;99.90;;;;;;6129528;23;20180;-89
2021/01/30 08:29:15;;;;;;;3.90;2.73;;;5.00;99.90;;;;;;6130414;23;20193;-89
2021/01/30 08:31:49;;;;;;;2.70;2.47;;;4.90;99.90;;;;;;6130283;23;20493;-88
2021/01/30 08:34:37;;;;;;;3.40;2.63;;;4.90;99.90;;;;;;6130564;23;20176;-89
2021/01/30 08:37:37;;;;;;;3.03;2.70;;;5.00;99.90;;;;;;6131042;23;20190;-88
2021/01/30 08:40:14;;;;;;;3.83;2.97;;;5.00;99.90;;;;;;6129849;23;20198;-90
2021/01/30 08:42:58;;;;;;;3.73;2.80;;;5.00;99.90;;;;;;6130459;23;20166;-90
2021/01/30 08:45:31;;;;;;;3.17;2.50;;;5.00;99.90;;;;;;6130279;23;20181;-89
2021/01/30 08:48:20;;;;;;;3.63;2.27;;;5.00;99.90;;;;;;6130991;23;20190;-89
2021/01/30 08:50:52;;;;;;;3.50;2.60;;;5.00;99.90;;;;;;6131487;23;20186;-88
2021/01/30 08:53:35;;;;;;;3.10;2.30;;;5.00;99.90;;;;;;6129684;23;20182;-89
2021/01/30 08:56:07;;;;;;;2.53;2.17;;;5.00;99.90;;;;;;6131844;23;20190;-90
2021/01/30 08:58:55;;;;;;;2.97;2.60;;;5.00;99.90;;;;;;6130714;23;20169;-90
2021/01/30 09:01:48;;;;;;;3.40;2.20;;;5.00;99.90;;;;;;6130785;23;20203;-89
2021/01/30 09:04:45;;;;;;;3.23;2.30;;;5.00;99.90;;;;;;6128598;23;20523;-90
2021/01/30 09:07:41;;;;;;;1.70;1.60;;;4.90;99.90;;;;;;6090021;23;20182;-90
2021/01/30 09:10:33;;;;;;;3.27;2.40;;;4.90;99.90;;;;;;6129104;23;20189;-90
2021/01/30 09:13:13;;;;;;;2.50;2.20;;;4.90;99.90;;;;;;6132351;23;20590;-89
2021/01/30 09:16:02;;;;;;;3.33;2.23;;;5.00;99.90;;;;;;6129680;23;20182;-89
2021/01/30 09:18:51;;;;;;;3.70;2.03;;;5.00;99.90;;;;;;6131190;23;20178;-89
2021/01/30 09:21:30;;;;;;;2.07;1.87;;;5.00;99.90;;;;;;6128970;23;20206;-88
2021/01/30 09:24:29;;;;;;;2.73;2.37;;;5.00;99.90;;;;;;6130989;23;20205;-89
2021/01/30 09:27:07;;;;;;;2.87;2.07;;;4.90;99.90;;;;;;6099990;23;20233;-88
2021/01/30 09:29:41;;;;;;;3.47;1.90;;;4.80;99.90;;;;;;6129591;23;20178;-89
2021/01/30 09:32:17;;;;;;;3.23;2.23;;;4.90;99.90;;;;;;6134914;23;20190;-89
2021/01/30 09:34:49;;;;;;;3.63;2.50;;;4.90;99.90;;;;;;6143890;23;20237;-88
2021/01/30 09:37:35;;;;;;;3.20;2.07;;;4.90;99.90;;;;;;6134476;23;20177;-89
2021/01/30 09:40:09;;;;;;;2.33;1.90;;;4.90;99.90;;;;;;6128770;23;20202;-89
2021/01/30 09:42:40;;;;;;;4.23;2.13;;;4.80;99.90;;;;;;6129517;23;20567;-88
2021/01/30 09:45:15;;;;;;;3.27;1.90;;;4.80;99.90;;;;;;6128488;23;20173;-88
2021/01/30 09:47:51;;;;;;;4.90;2.20;;;4.80;99.90;;;;;;6136992;23;20159;-88
2021/01/30 09:50:25;;;;;;;2.80;1.77;;;4.80;99.90;;;;;;6151140;23;20170;-90
2021/01/30 09:52:59;;;;;;;1.90;1.70;;;4.80;99.90;;;;;;6150852;23;20182;-89
2021/01/30 09:55:31;;;;;;;2.97;1.90;;;4.80;99.90;;;;;;6135989;23;20178;-89
2021/01/30 09:58:09;;;;;;;2.67;2.00;;;4.80;99.90;;;;;;6133927;23;20167;-89
2021/01/30 10:00:41;;;;;;;2.53;2.10;;;4.80;99.90;;;;;;6129885;23;20210;-89
2021/01/30 10:03:19;;;;;;;2.10;1.90;;;4.80;99.90;;;;;;6130039;23;20197;-89
2021/01/30 10:05:53;;;;;;;2.40;2.20;;;4.80;99.90;;;;;;6129378;23;20396;-89
2021/01/30 10:08:29;;;;;;;3.10;2.20;;;4.80;99.90;;;;;;6129526;23;20590;-90
2021/01/30 10:11:06;;;;;;;3.30;2.10;;;4.80;99.90;;;;;;6127475;23;20198;-90
2021/01/30 10:13:43;;;;;;;2.90;1.67;;;4.80;99.90;;;;;;6128257;23;20513;-90
2021/01/30 10:16:17;;;;;;;3.07;1.80;;;4.80;99.90;;;;;;6127261;23;20284;-90
2021/01/30 10:18:53;;;;;;;2.10;1.50;;;4.80;99.90;;;;;;6127096;23;20182;-89
2021/01/30 10:21:35;;;;;;;3.37;1.97;;;4.80;99.90;;;;;;6126017;23;20212;-89
2021/01/30 10:24:19;;;;;;;1.87;1.50;;;4.80;99.90;;;;;;6129405;23;20543;-90
2021/01/30 10:26:52;;;;;;;2.37;1.80;;;4.80;99.90;;;;;;6129661;23;20664;-89
2021/01/30 10:29:25;;;;;;;1.80;1.50;;;4.90;99.90;;;;;;6130010;23;20286;-90
2021/01/30 10:31:59;;;;;;;2.67;1.80;;;4.90;99.90;;;;;;6128312;23;20266;-90
2021/01/30 10:34:35;;;;;;;1.57;1.30;;;4.80;99.90;;;;;;6127833;23;20174;-89
2021/01/30 10:37:17;;;;;;;1.93;1.53;;;4.80;99.90;;;;;;6128891;23;20193;-90
2021/01/30 10:39:52;;;;;;;2.57;1.60;;;4.80;99.90;;;;;;6128965;23;20166;-89
2021/01/30 10:42:25;;;;;;;1.60;1.50;;;4.80;99.90;;;;;;6128046;23;20181;-89
2021/01/30 10:45:00;;;;;;;2.00;1.73;;;4.80;99.90;;;;;;6128889;23;20513;-89
2021/01/30 10:47:31;;;;;;;2.60;1.43;;;4.80;99.90;;;;;;6128834;23;20177;-89
2021/01/30 10:50:14;;;;;;;2.33;1.73;;;4.90;99.90;;;;;;6127449;23;20186;-90
2021/01/30 10:52:44;;;;;;;1.40;1.30;;;4.90;99.90;;;;;;6132484;23;20178;-88
2021/01/30 10:55:32;;;;;;;2.90;1.40;;;4.80;99.90;;;;;;6134135;23;20181;-89
2021/01/30 10:58:19;;;;;;;1.80;1.47;;;4.80;99.90;;;;;;6135557;23;20171;-89
2021/01/30 11:01:08;;;;;;;1.07;0.97;;;4.80;99.90;;;;;;6133799;23;20205;-89
2021/01/30 11:03:47;;;;;;;2.07;0.80;;;4.80;99.90;;;;;;6136487;23;20176;-90
2021/01/30 11:06:29;;;;;;;1.10;0.80;;;4.80;99.90;;;;;;6128894;23;20170;-90
2021/01/30 11:09:11;;;;;;;1.50;0.40;;;4.80;99.90;;;;;;6128950;23;20213;-90
2021/01/30 11:11:42;;;;;;;0.57;0.50;;;4.80;99.90;;;;;;6128544;23;20197;-91
2021/01/30 11:14:17;;;;;;;0.90;0.50;;;4.90;99.90;;;;;;6134385;23;20202;-91
2021/01/30 11:16:48;;;;;;;0.40;0.40;;;4.90;99.90;;;;;;6127514;23;20178;-90
2021/01/30 11:19:25;;;;;;;0.80;0.60;;;4.90;99.90;;;;;;6129194;23;20243;-88
2021/01/30 11:22:07;;;;;;;0.50;0.50;;;4.90;99.90;;;;;;6128536;23;20216;-89
2021/01/30 11:24:46;;;;;;;0.50;0.50;;;4.80;99.90;;;;;;6129557;23;20174;-89
2021/01/30 11:27:31;;;;;;;0.87;0.57;;;4.80;99.90;;;;;;6128744;23;20189;-88
2021/01/30 11:30:15;;;;;;;0.80;0.60;;;4.80;99.90;;;;;;6131162;23;20181;-90
2021/01/30 11:33:05;;;;;;;0.93;0.67;;;4.80;99.90;;;;;;6132520;23;20167;-91
2021/01/30 11:35:39;;;;;;;0.77;0.70;;;4.80;99.90;;;;;;6131000;23;20182;-88
2021/01/30 11:38:16;;;;;;;0.70;0.60;;;4.80;99.90;;;;;;6130467;23;20221;-89
2021/01/30 11:40:50;;;;;;;0.60;0.60;;;4.80;99.90;;;;;;6133004;23;20221;-89
2021/01/30 11:43:21;;;;;;;0.60;0.57;;;4.90;99.90;;;;;;6128917;23;20197;-89
2021/01/30 11:45:53;;;;;;;1.13;0.73;;;4.90;99.90;;;;;;6130218;23;20178;-89
2021/01/30 11:48:25;;;;;;;0.53;0.50;;;4.90;99.90;;;;;;6129700;23;20174;-88
2021/01/30 11:50:57;;;;;;;0.60;0.60;;;4.90;99.90;;;;;;6129877;23;20189;-89
2021/01/30 11:53:31;;;;;;;1.77;0.50;;;5.00;99.90;;;;;;6129098;23;20390;-89
2021/01/30 11:56:01;;;;;;;1.07;0.60;;;5.00;99.90;;;;;;6130771;23;20640;-90
2021/01/30 11:58:32;;;;;;;1.30;0.60;;;5.00;99.90;;;;;;6132862;23;20175;-89
2021/01/30 12:01:03;;;;;;;1.33;0.53;;;4.90;99.90;;;;;;6150022;23;20198;-89
2021/01/30 12:03:35;;;;;;;1.03;0.60;;;4.90;99.90;;;;;;6149655;23;20171;-89
2021/01/30 12:06:06;;;;;;;0.80;0.50;;;4.90;99.90;;;;;;6144205;23;20585;-90
2021/01/30 12:08:38;;;;;;;1.17;0.60;;;4.80;99.90;;;;;;6137213;23;20170;-89
2021/01/30 12:11:11;;;;;;;0.67;0.50;;;4.80;99.90;;;;;;6105191;23;20182;-88
2021/01/30 12:13:42;;;;;;;0.90;0.67;;;4.70;99.90;;;;;;6130344;23;20445;-89
2021/01/30 12:16:15;;;;;;;0.50;0.40;;;4.80;99.90;;;;;;6130856;23;20229;-90
2021/01/30 12:18:46;;;;;;;0.60;0.50;;;4.80;99.90;;;;;;6129989;23;20186;-89
2021/01/30 12:21:17;;;;;;;1.40;0.60;;;4.80;99.90;;;;;;6129397;23;20217;-89
2021/01/30 12:23:49;;;;;;;1.30;0.50;;;4.80;99.90;;;;;;6130512;23;20201;-89
2021/01/30 12:26:23;;;;;;;1.33;0.40;;;4.80;99.90;;;;;;6131071;23;20601;-89
2021/01/30 12:28:55;;;;;;;0.50;0.47;;;4.80;99.90;;;;;;6130079;23;20178;-91
2021/01/30 12:31:26;;;;;;;1.10;0.40;;;4.90;99.90;;;;;;6129968;23;20186;-90
2021/01/30 12:33:57;;;;;;;0.73;0.40;;;4.90;99.90;;;;;;6131513;23;20471;-89
2021/01/30 12:36:28;;;;;;;0.57;0.43;;;4.90;99.90;;;;;;6130227;23;20182;-89
2021/01/30 12:39:00;;;;;;;0.27;0.27;;;5.00;99.90;;;;;;6130159;23;20270;-90
2021/01/30 12:41:31;;;;;;;0.30;0.30;;;4.90;99.90;;;;;;6129092;23;20655;-87
2021/01/30 12:44:02;;;;;;;0.77;0.30;;;5.00;99.90;;;;;;6129410;23;20179;-88
2021/01/30 12:46:45;;;;;;;1.17;0.40;;;5.00;99.90;;;;;;6130175;23;20174;-89
2021/01/30 12:49:17;;;;;;;0.30;0.30;;;5.00;99.90;;;;;;6129538;23;20184;-88
2021/01/30 12:51:48;;;;;;;0.70;0.40;;;5.00;99.90;;;;;;6128826;23;20834;-88
2021/01/30 12:54:22;;;;;;;0.40;0.33;;;5.00;99.90;;;;;;6129778;23;20175;-88
2021/01/30 12:56:53;;;;;;;0.40;0.30;;;5.10;99.90;;;;;;6128876;23;20170;-88
2021/01/30 12:59:24;;;;;;;0.40;0.40;;;5.10;99.90;;;;;;6128885;23;20568;-89
2021/01/30 13:01:55;;;;;;;0.30;0.30;;;5.00;99.90;;;;;;6128588;23;20574;-89
2021/01/30 13:04:26;;;;;;;0.63;0.30;;;5.00;99.90;;;;;;6128664;23;20170;-90
2021/01/30 13:06:58;;;;;;;1.00;0.30;;;5.00;99.90;;;;;;6130742;23;20187;-89
2021/01/30 13:09:30;;;;;;;1.13;0.20;;;5.10;99.90;;;;;;6130580;23;20175;-90
2021/01/30 13:12:02;;;;;;;0.63;0.40;;;5.10;99.90;;;;;;6127896;23;20175;-89
2021/01/30 13:14:33;;;;;;;0.30;0.30;;;5.10;99.90;;;;;;6128672;23;20629;-90
2021/01/30 13:17:04;;;;;;;0.80;0.20;;;5.10;99.90;;;;;;6129537;23;20230;-90
2021/01/30 13:19:35;;;;;;;0.30;0.20;;;5.10;99.90;;;;;;6129022;23;20167;-90
2021/01/30 13:22:06;;;;;;;0.30;0.30;;;5.10;99.90;;;;;;6126916;23;20214;-90
2021/01/30 13:24:39;;;;;;;0.50;0.33;;;5.10;99.90;;;;;;6129446;23;20174;-89
2021/01/30 13:27:11;;;;;;;0.30;0.30;;;5.10;99.90;;;;;;6128324;23;20626;-88
2021/01/30 13:29:42;;;;;;;0.27;0.27;;;5.10;99.90;;;;;;6129335;23;20428;-88
2021/01/30 13:32:13;;;;;;;0.20;0.20;;;5.10;99.90;;;;;;6128794;23;20849;-88
2021/01/30 13:34:45;;;;;;;0.30;0.30;;;5.10;99.90;;;;;;6128207;23;20167;-87
2021/01/30 13:37:31;;;;;;;0.57;0.40;;;5.10;99.90;;;;;;6128945;23;20205;-89
2021/01/30 13:40:04;;;;;;;0.40;0.37;;;5.20;99.90;;;;;;6128633;23;20179;-90
2021/01/30 13:42:35;;;;;;;2.10;0.70;;;5.20;99.90;;;;;;6129318;23;20234;-89
2021/01/30 13:45:08;;;;;;;0.57;0.30;;;5.10;99.90;;;;;;6129389;23;20194;-88
2021/01/30 13:47:38;;;;;;;0.40;0.30;;;5.20;99.90;;;;;;6127194;23;20241;-88
2021/01/30 13:50:11;;;;;;;0.50;0.50;;;5.20;99.90;;;;;;6128545;23;20511;-89
2021/01/30 13:52:42;;;;;;;0.60;0.53;;;5.20;99.90;;;;;;6129336;23;20167;-88
2021/01/30 13:55:15;;;;;;;0.33;0.20;;;5.10;99.90;;;;;;6128446;23;20249;-89
2021/01/30 13:57:46;;;;;;;0.40;0.30;;;5.10;99.90;;;;;;6128758;23;20185;-89
2021/01/30 14:00:20;;;;;;;0.30;0.20;;;5.20;99.90;;;;;;6127453;23;20190;-89
2021/01/30 14:02:51;;;;;;;0.57;0.20;;;5.10;99.90;;;;;;6129120;23;20178;-90
2021/01/30 14:05:27;;;;;;;0.20;0.20;;;5.20;99.90;;;;;;6129832;23;20166;-90
2021/01/30 14:08:00;;;;;;;0.20;0.20;;;5.10;99.90;;;;;;6133094;23;20566;-90
2021/01/30 14:10:33;;;;;;;0.30;0.30;;;5.20;99.90;;;;;;6148183;23;20267;-89
2021/01/30 14:13:04;;;;;;;0.20;0.20;;;5.20;99.90;;;;;;6149785;23;20182;-89
2021/01/30 14:15:35;;;;;;;0.40;0.30;;;5.20;99.90;;;;;;6147346;23;20175;-89
2021/01/30 14:18:07;;;;;;;0.73;0.20;;;5.30;99.90;;;;;;6143161;23;20175;-89
2021/01/30 14:20:39;;;;;;;0.30;0.30;;;5.30;99.90;;;;;;6131334;23;20195;-89
2021/01/30 14:23:10;;;;;;;0.40;0.20;;;5.30;99.90;;;;;;6132648;23;20193;-90